Nearby METAR Reports

 

EHGG - Groningen/Eelde, Netherlands
Distance from station: WSW 29km
Updated: 18/01/2020 07:55
Few Clouds
Few Clouds
 Wind from SSW
Wind: SSW 20 km/h
Temperature: 3°C
Wind Chill: -2°C
Dew Point: 2°C
Humidity: 93%
Barometer: 1018 hPa
Clouds: Few Clouds
Visibility: 10 km
Cloud details: Few Clouds 335 m
2020/01/18 06:55 EHGG 180655Z AUTO 21011KT 9999 FEW011 03/02 Q1018 NOSIG
ETNT - Wittmundhaven(Ga, Germany
Distance from station: ENE 57km
Updated: 18/01/2020 07:20
Few Clouds
Few Clouds
 Wind from SW
Wind: SW 19 km/h
Temperature: 3°C
Wind Chill: -2°C
Dew Point: 2°C
Humidity: 93%
Barometer: 1017 hPa
Clouds: Few Clouds
Visibility: 10 km
Cloud details: Few Clouds 701 m
2020/01/18 06:20 ETNT 180620Z 22010KT 9999 FEW023 03/02 Q1017 BLU+
 
ETWM - Meppen, Germany
Distance from station: SSE 66km
Updated: 18/01/2020 07:20

 Wind from SW
Wind: SW 20 km/h
Temperature: 3°C
Wind Chill: -2°C
Dew Point: 2°C
Humidity: 93%
Barometer: 1019 hPa
2020/01/18 06:20 ETWM 180620Z AUTO 23011KT //// // ////// 03/02 Q1019 ///
EHMA - Awg-1 Sea, Netherlands
Distance from station: WNW 70km
Updated: 18/01/2020 07:55
Few Clouds
Few Clouds
 Wind from WSW
Wind: WSW 35 km/h
Temperature: 6°C
Wind Chill: 1°C
Dew Point: 4°C
Humidity: 87%
Barometer: 1017 hPa
Clouds: Few Clouds
Visibility: 10 km
Cloud details: Few Clouds 457 m
2020/01/18 06:55 EHMA 180655Z AUTO 24019KT 9999 FEW015CB 06/04 Q1017
 
EHLW - Leeuwarden Rnlaf, Netherlands
Distance from station: W 79km
Updated: 18/01/2020 08:04
Partly cloudy
Partly cloudy
 Wind from SW
Wind: SW 17 km/h
Temperature: 4°C
Wind Chill: 0°C
Dew Point: 3°C
Humidity: 93%
Barometer: 1018 hPa
Clouds: Partly cloudy
Visibility: 10 km
Cloud details: Few Clouds 457 m
Partly cloudy 518 m
2020/01/18 07:04 EHLW 180704Z AUTO 22009KT 9999 FEW015CB SCT017 04/03 Q1018 WHT